sensor_id;sensor_type;location;lat;lon;timestamp;pressure;altitude;pressure_sealevel;temperature;humidity
59789;BME280;47353;51.614;5.530;2023-08-06T00:01:42;100261.81;;;14.69;100.00
59789;BME280;47353;51.614;5.530;2023-08-06T00:04:07;100268.38;;;14.73;100.00
59789;BME280;47353;51.614;5.530;2023-08-06T00:06:33;100266.75;;;14.72;100.00
59789;BME280;47353;51.614;5.530;2023-08-06T00:08:58;100266.41;;;14.73;100.00
59789;BME280;47353;51.614;5.530;2023-08-06T00:11:23;100263.94;;;14.72;100.00
59789;BME280;47353;51.614;5.530;2023-08-06T00:13:49;100264.28;;;14.70;100.00
59789;BME280;47353;51.614;5.530;2023-08-06T00:16:14;100270.03;;;14.74;100.00
59789;BME280;47353;51.614;5.530;2023-08-06T00:18:40;100260.00;;;14.73;100.00
59789;BME280;47353;51.614;5.530;2023-08-06T00:21:05;100260.84;;;14.73;100.00
59789;BME280;47353;51.614;5.530;2023-08-06T00:23:32;100260.34;;;14.71;100.00
59789;BME280;47353;51.614;5.530;2023-08-06T00:25:57;100258.91;;;14.74;100.00
59789;BME280;47353;51.614;5.530;2023-08-06T00:28:23;100257.56;;;14.71;100.00
59789;BME280;47353;51.614;5.530;2023-08-06T00:30:55;100254.44;;;14.73;100.00
59789;BME280;47353;51.614;5.530;2023-08-06T00:33:22;100247.03;;;14.68;100.00
59789;BME280;47353;51.614;5.530;2023-08-06T00:35:47;100243.94;;;14.70;100.00
59789;BME280;47353;51.614;5.530;2023-08-06T00:38:13;100250.66;;;14.69;100.00
59789;BME280;47353;51.614;5.530;2023-08-06T00:40:38;100248.38;;;14.71;100.00
59789;BME280;47353;51.614;5.530;2023-08-06T00:43:04;100244.25;;;14.68;100.00
59789;BME280;47353;51.614;5.530;2023-08-06T00:45:29;100242.94;;;14.66;100.00
59789;BME280;47353;51.614;5.530;2023-08-06T00:47:55;100243.47;;;14.68;100.00
59789;BME280;47353;51.614;5.530;2023-08-06T00:50:21;100245.94;;;14.69;100.00
59789;BME280;47353;51.614;5.530;2023-08-06T00:52:48;100241.00;;;14.66;100.00
59789;BME280;47353;51.614;5.530;2023-08-06T00:55:14;100242.09;;;14.65;100.00
59789;BME280;47353;51.614;5.530;2023-08-06T00:57:40;100239.84;;;14.67;100.00
59789;BME280;47353;51.614;5.530;2023-08-06T01:00:07;100235.75;;;14.65;100.00
59789;BME280;47353;51.614;5.530;2023-08-06T01:02:32;100234.59;;;14.66;100.00
59789;BME280;47353;51.614;5.530;2023-08-06T01:04:58;100239.31;;;14.65;100.00
59789;BME280;47353;51.614;5.530;2023-08-06T01:15:49;100236.72;;;14.69;100.00
59789;BME280;47353;51.614;5.530;2023-08-06T01:18:19;100240.34;;;14.69;100.00
59789;BME280;47353;51.614;5.530;2023-08-06T01:20:45;100236.72;;;14.69;100.00
59789;BME280;47353;51.614;5.530;2023-08-06T01:23:10;100245.94;;;14.69;100.00
59789;BME280;47353;51.614;5.530;2023-08-06T01:25:45;100251.50;;;14.69;100.00
59789;BME280;47353;51.614;5.530;2023-08-06T01:28:25;100240.03;;;14.71;100.00
59789;BME280;47353;51.614;5.530;2023-08-06T01:30:55;100238.22;;;14.66;100.00
59789;BME280;47353;51.614;5.530;2023-08-06T01:33:22;100243.78;;;14.66;100.00
59789;BME280;47353;51.614;5.530;2023-08-06T01:35:49;100242.09;;;14.65;100.00
59789;BME280;47353;51.614;5.530;2023-08-06T01:38:15;100241.94;;;14.62;100.00
59789;BME280;47353;51.614;5.530;2023-08-06T01:40:41;100248.44;;;14.57;100.00
59789;BME280;47353;51.614;5.530;2023-08-06T01:43:06;100236.81;;;14.55;100.00
59789;BME280;47353;51.614;5.530;2023-08-06T01:45:32;100237.94;;;14.54;100.00
59789;BME280;47353;51.614;5.530;2023-08-06T01:47:57;100242.38;;;14.55;100.00
59789;BME280;47353;51.614;5.530;2023-08-06T01:50:23;100234.84;;;14.56;100.00
59789;BME280;47353;51.614;5.530;2023-08-06T01:52:48;100236.69;;;14.60;100.00
59789;BME280;47353;51.614;5.530;2023-08-06T01:55:14;100240.28;;;14.61;100.00
59789;BME280;47353;51.614;5.530;2023-08-06T01:57:39;100239.97;;;14.62;100.00
59789;BME280;47353;51.614;5.530;2023-08-06T02:00:05;100237.50;;;14.61;100.00
59789;BME280;47353;51.614;5.530;2023-08-06T02:02:30;100236.69;;;14.60;100.00
59789;BME280;47353;51.614;5.530;2023-08-06T02:04:56;100233.28;;;14.63;100.00
59789;BME280;47353;51.614;5.530;2023-08-06T02:07:23;100239.47;;;14.60;100.00
59789;BME280;47353;51.614;5.530;2023-08-06T02:09:48;100238.31;;;14.61;100.00
59789;BME280;47353;51.614;5.530;2023-08-06T02:12:14;100243.06;;;14.61;100.00
59789;BME280;47353;51.614;5.530;2023-08-06T02:14:39;100240.78;;;14.63;100.00
59789;BME280;47353;51.614;5.530;2023-08-06T02:17:04;100243.91;;;14.61;100.00
59789;BME280;47353;51.614;5.530;2023-08-06T02:19:30;100241.44;;;14.60;100.00
59789;BME280;47353;51.614;5.530;2023-08-06T02:21:56;100233.72;;;14.57;100.00
59789;BME280;47353;51.614;5.530;2023-08-06T02:24:21;100233.06;;;14.60;100.00
59789;BME280;47353;51.614;5.530;2023-08-06T02:26:47;100229.47;;;14.59;100.00
59789;BME280;47353;51.614;5.530;2023-08-06T02:29:14;100235.66;;;14.56;100.00
59789;BME280;47353;51.614;5.530;2023-08-06T02:31:39;100233.91;;;14.60;100.00
59789;BME280;47353;51.614;5.530;2023-08-06T02:34:05;100229.47;;;14.59;100.00
59789;BME280;47353;51.614;5.530;2023-08-06T02:36:30;100236.81;;;14.55;100.00
59789;BME280;47353;51.614;5.530;2023-08-06T02:38:56;100225.34;;;14.57;100.00
59789;BME280;47353;51.614;5.530;2023-08-06T02:41:22;100224.00;;;14.54;100.00
59789;BME280;47353;51.614;5.530;2023-08-06T02:43:47;100228.78;;;14.54;100.00
59789;BME280;47353;51.614;5.530;2023-08-06T02:46:12;100229.59;;;14.54;100.00
59789;BME280;47353;51.614;5.530;2023-08-06T02:48:40;100226.00;;;14.54;100.00
59789;BME280;47353;51.614;5.530;2023-08-06T02:51:06;100219.59;;;14.53;100.00
59789;BME280;47353;51.614;5.530;2023-08-06T02:53:31;100223.22;;;14.54;100.00
59789;BME280;47353;51.614;5.530;2023-08-06T02:55:57;100220.44;;;14.54;100.00
59789;BME280;47353;51.614;5.530;2023-08-06T02:58:22;100219.59;;;14.53;100.00
59789;BME280;47353;51.614;5.530;2023-08-06T03:03:26;100216.16;;;14.56;100.00
59789;BME280;47353;51.614;5.530;2023-08-06T03:05:52;100210.25;;;14.49;100.00
59789;BME280;47353;51.614;5.530;2023-08-06T03:08:18;100205.94;;;14.43;100.00
59789;BME280;47353;51.614;5.530;2023-08-06T03:10:47;100225.16;;;14.53;100.00
59789;BME280;47353;51.614;5.530;2023-08-06T03:13:13;100221.06;;;14.51;100.00
59789;BME280;47353;51.614;5.530;2023-08-06T03:15:38;100221.38;;;14.49;100.00
59789;BME280;47353;51.614;5.530;2023-08-06T03:18:04;100224.34;;;14.53;100.00
59789;BME280;47353;51.614;5.530;2023-08-06T03:20:32;100220.03;;;14.47;100.00
59789;BME280;47353;51.614;5.530;2023-08-06T03:22:57;100230.69;;;14.45;100.00
59789;BME280;47353;51.614;5.530;2023-08-06T03:25:22;100222.34;;;14.45;100.00
59789;BME280;47353;51.614;5.530;2023-08-06T03:27:48;100224.81;;;14.46;100.00
59789;BME280;47353;51.614;5.530;2023-08-06T03:30:13;100225.59;;;14.47;100.00
59789;BME280;47353;51.614;5.530;2023-08-06T03:32:39;100216.78;;;14.45;100.00
59789;BME280;47353;51.614;5.530;2023-08-06T03:35:04;100218.72;;;14.44;100.00
59789;BME280;47353;51.614;5.530;2023-08-06T03:37:30;100217.56;;;14.45;100.00
59789;BME280;47353;51.614;5.530;2023-08-06T03:39:55;100228.38;;;14.47;100.00
59789;BME280;47353;51.614;5.530;2023-08-06T03:42:21;100223.13;;;14.45;100.00
59789;BME280;47353;51.614;5.530;2023-08-06T03:44:46;100220.88;;;14.47;100.00
59789;BME280;47353;51.614;5.530;2023-08-06T03:47:12;100222.34;;;14.45;100.00
59789;BME280;47353;51.614;5.530;2023-08-06T03:49:40;100227.06;;;14.44;100.00
59789;BME280;47353;51.614;5.530;2023-08-06T03:52:06;100221.00;;;14.42;100.00
59789;BME280;47353;51.614;5.530;2023-08-06T03:54:32;100224.28;;;14.44;100.00
59789;BME280;47353;51.614;5.530;2023-08-06T03:56:57;100230.38;;;14.46;100.00
59789;BME280;47353;51.614;5.530;2023-08-06T03:59:22;100223.59;;;14.39;100.00
59789;BME280;47353;51.614;5.530;2023-08-06T04:01:48;100224.94;;;14.41;100.00
59789;BME280;47353;51.614;5.530;2023-08-06T04:04:13;100229.97;;;14.39;100.00
59789;BME280;47353;51.614;5.530;2023-08-06T04:06:38;100226.06;;;14.40;100.00
59789;BME280;47353;51.614;5.530;2023-08-06T04:09:04;100233.09;;;14.38;100.00
59789;BME280;47353;51.614;5.530;2023-08-06T04:11:29;100229.28;;;14.34;100.00
59789;BME280;47353;51.614;5.530;2023-08-06T04:13:55;100227.84;;;14.36;100.00
59789;BME280;47353;51.614;5.530;2023-08-06T04:16:21;100225.03;;;14.36;100.00
59789;BME280;47353;51.614;5.530;2023-08-06T04:18:47;100230.50;;;14.41;100.00
59789;BME280;47353;51.614;5.530;2023-08-06T04:21:12;100237.38;;;14.44;100.00
59789;BME280;47353;51.614;5.530;2023-08-06T04:23:37;100239.53;;;14.47;100.00
59789;BME280;47353;51.614;5.530;2023-08-06T04:26:03;100240.38;;;14.47;100.00
59789;BME280;47353;51.614;5.530;2023-08-06T04:28:28;100239.53;;;14.47;100.00
59789;BME280;47353;51.614;5.530;2023-08-06T04:30:54;100244.31;;;14.46;100.00
59789;BME280;47353;51.614;5.530;2023-08-06T04:33:20;100244.47;;;14.50;100.00
59789;BME280;47353;51.614;5.530;2023-08-06T04:35:45;100245.94;;;14.47;100.00
59789;BME280;47353;51.614;5.530;2023-08-06T04:38:11;100243.03;;;14.52;100.00
59789;BME280;47353;51.614;5.530;2023-08-06T04:40:36;100252.38;;;14.56;100.00
59789;BME280;47353;51.614;5.530;2023-08-06T04:43:02;100255.69;;;14.58;100.00
59789;BME280;47353;51.614;5.530;2023-08-06T04:45:27;100246.16;;;14.59;100.00
59789;BME280;47353;51.614;5.530;2023-08-06T04:47:53;100243.38;;;14.59;100.00
59789;BME280;47353;51.614;5.530;2023-08-06T04:50:19;100250.00;;;14.63;100.00
59789;BME280;47353;51.614;5.530;2023-08-06T04:52:45;100241.00;;;14.66;100.00
59789;BME280;47353;51.614;5.530;2023-08-06T04:55:10;100246.41;;;14.71;100.00
59789;BME280;47353;51.614;5.530;2023-08-06T04:57:36;100252.16;;;14.75;100.00
59789;BME280;47353;51.614;5.530;2023-08-06T05:00:01;100259.75;;;14.83;100.00
59789;BME280;47353;51.614;5.530;2023-08-06T05:02:26;100261.91;;;14.86;100.00
59789;BME280;47353;51.614;5.530;2023-08-06T05:04:52;100257.34;;;14.90;100.00
59789;BME280;47353;51.614;5.530;2023-08-06T05:07:17;100263.94;;;14.94;100.00
59789;BME280;47353;51.614;5.530;2023-08-06T05:09:42;100257.72;;;14.97;100.00
59789;BME280;47353;51.614;5.530;2023-08-06T05:12:08;100266.94;;;15.06;100.00
59789;BME280;47353;51.614;5.530;2023-08-06T05:14:34;100265.78;;;15.07;100.00
59789;BME280;47353;51.614;5.530;2023-08-06T05:16:59;100265.00;;;15.15;100.00
59789;BME280;47353;51.614;5.530;2023-08-06T05:19:27;100274.06;;;15.21;100.00
59789;BME280;47353;51.614;5.530;2023-08-06T05:21:52;100272.59;;;15.23;100.00
59789;BME280;47353;51.614;5.530;2023-08-06T05:24:18;100277.06;;;15.33;100.00
59789;BME280;47353;51.614;5.530;2023-08-06T05:26:43;100292.53;;;15.39;100.00
59789;BME280;47353;51.614;5.530;2023-08-06T05:29:11;100290.56;;;15.39;100.00
59789;BME280;47353;51.614;5.530;2023-08-06T05:31:37;100289.63;;;15.44;100.00
59789;BME280;47353;51.614;5.530;2023-08-06T05:34:03;100292.25;;;15.49;100.00
59789;BME280;47353;51.614;5.530;2023-08-06T05:36:29;100295.03;;;15.49;100.00
59789;BME280;47353;51.614;5.530;2023-08-06T05:38:54;100302.75;;;15.52;100.00
59789;BME280;47353;51.614;5.530;2023-08-06T05:41:19;100310.00;;;15.53;100.00
59789;BME280;47353;51.614;5.530;2023-08-06T05:43:45;100308.53;;;15.55;100.00
59789;BME280;47353;51.614;5.530;2023-08-06T05:46:10;100311.81;;;15.57;100.00
59789;BME280;47353;51.614;5.530;2023-08-06T05:48:36;100313.97;;;15.60;100.00
59789;BME280;47353;51.614;5.530;2023-08-06T05:51:01;100322.66;;;15.67;100.00
59789;BME280;47353;51.614;5.530;2023-08-06T05:53:26;100313.66;;;15.70;100.00
59789;BME280;47353;51.614;5.530;2023-08-06T05:55:52;100318.13;;;15.80;100.00
59789;BME280;47353;51.614;5.530;2023-08-06T05:58:17;100315.50;;;15.83;100.00
59789;BME280;47353;51.614;5.530;2023-08-06T06:00:45;100309.59;;;15.85;100.00
59789;BME280;47353;51.614;5.530;2023-08-06T06:03:10;100326.72;;;16.00;100.00
59789;BME280;47353;51.614;5.530;2023-08-06T06:05:38;100335.59;;;16.11;100.00
59789;BME280;47353;51.614;5.530;2023-08-06T06:08:04;100338.25;;;16.16;100.00
59789;BME280;47353;51.614;5.530;2023-08-06T06:10:29;100335.78;;;16.23;100.00
59789;BME280;47353;51.614;5.530;2023-08-06T06:12:54;100341.38;;;16.31;100.00
59789;BME280;47353;51.614;5.530;2023-08-06T06:15:20;100343.34;;;16.39;100.00
59789;BME280;47353;51.614;5.530;2023-08-06T06:17:45;100347.94;;;16.35;100.00
59789;BME280;47353;51.614;5.530;2023-08-06T06:20:11;100351.41;;;16.32;100.00
59789;BME280;47353;51.614;5.530;2023-08-06T06:22:36;100356.47;;;16.30;100.00
59789;BME280;47353;51.614;5.530;2023-08-06T06:25:01;100363.72;;;16.40;100.00
59789;BME280;47353;51.614;5.530;2023-08-06T06:27:27;100363.22;;;16.38;100.00
59789;BME280;47353;51.614;5.530;2023-08-06T06:29:52;100358.94;;;16.32;100.00
59789;BME280;47353;51.614;5.530;2023-08-06T06:32:19;100370.13;;;16.32;100.00
59789;BME280;47353;51.614;5.530;2023-08-06T06:34:45;100366.53;;;16.31;100.00
59789;BME280;47353;51.614;5.530;2023-08-06T06:37:10;100382.63;;;16.34;100.00
59789;BME280;47353;51.614;5.530;2023-08-06T06:39:36;100375.72;;;16.32;100.00
59789;BME280;47353;51.614;5.530;2023-08-06T06:42:01;100381.63;;;16.30;100.00
59789;BME280;47353;51.614;5.530;2023-08-06T06:44:26;100385.25;;;16.31;100.00
59789;BME280;47353;51.614;5.530;2023-08-06T06:46:52;100383.44;;;16.35;100.00
59789;BME280;47353;51.614;5.530;2023-08-06T06:49:17;100391.00;;;16.34;100.00
59789;BME280;47353;51.614;5.530;2023-08-06T06:51:43;100397.06;;;16.36;100.00
59789;BME280;47353;51.614;5.530;2023-08-06T06:54:09;100389.03;;;16.35;100.00
59789;BME280;47353;51.614;5.530;2023-08-06T06:56:34;100399.41;;;16.43;100.00
59789;BME280;47353;51.614;5.530;2023-08-06T06:59:00;100385.13;;;16.44;100.00
59789;BME280;47353;51.614;5.530;2023-08-06T07:01:25;100391.53;;;16.53;100.00
59789;BME280;47353;51.614;5.530;2023-08-06T07:03:51;100400.75;;;16.54;100.00
59789;BME280;47353;51.614;5.530;2023-08-06T07:06:16;100403.53;;;16.62;100.00
59789;BME280;47353;51.614;5.530;2023-08-06T07:08:44;100397.66;;;16.64;100.00
59789;BME280;47353;51.614;5.530;2023-08-06T07:11:09;100405.84;;;16.69;100.00
59789;BME280;47353;51.614;5.530;2023-08-06T07:13:35;100402.75;;;16.71;100.00
59789;BME280;47353;51.614;5.530;2023-08-06T07:16:00;100403.41;;;16.85;100.00
59789;BME280;47353;51.614;5.530;2023-08-06T07:18:25;100402.09;;;16.91;100.00
59789;BME280;47353;51.614;5.530;2023-08-06T07:20:52;100408.34;;;16.96;100.00
59789;BME280;47353;51.614;5.530;2023-08-06T07:23:20;100406.69;;;17.04;100.00
59789;BME280;47353;51.614;5.530;2023-08-06T07:25:46;100413.41;;;17.20;100.00
59789;BME280;47353;51.614;5.530;2023-08-06T07:28:13;100406.84;;;17.16;100.00
59789;BME280;47353;51.614;5.530;2023-08-06T07:30:39;100417.06;;;17.12;100.00
59789;BME280;47353;51.614;5.530;2023-08-06T07:33:05;100418.19;;;17.11;100.00
59789;BME280;47353;51.614;5.530;2023-08-06T07:35:32;100429.72;;;17.18;100.00
59789;BME280;47353;51.614;5.530;2023-08-06T07:37:57;100432.19;;;17.19;100.00
59789;BME280;47353;51.614;5.530;2023-08-06T07:40:23;100423.13;;;17.14;100.00
59789;BME280;47353;51.614;5.530;2023-08-06T07:42:48;100425.91;;;17.14;100.00
59789;BME280;47353;51.614;5.530;2023-08-06T07:45:13;100438.44;;;17.08;100.00
59789;BME280;47353;51.614;5.530;2023-08-06T07:47:39;100435.47;;;16.79;100.00
59789;BME280;47353;51.614;5.530;2023-08-06T07:50:05;100453.22;;;16.66;100.00
59789;BME280;47353;51.614;5.530;2023-08-06T07:52:30;100449.38;;;16.44;100.00
59789;BME280;47353;51.614;5.530;2023-08-06T07:54:55;100458.69;;;16.31;100.00
59789;BME280;47353;51.614;5.530;2023-08-06T07:57:21;100455.47;;;16.07;100.00
59789;BME280;47353;51.614;5.530;2023-08-06T07:59:46;100455.25;;;15.95;100.00
59789;BME280;47353;51.614;5.530;2023-08-06T08:02:12;100461.28;;;15.80;100.00
59789;BME280;47353;51.614;5.530;2023-08-06T08:04:37;100467.94;;;15.71;100.00
59789;BME280;47353;51.614;5.530;2023-08-06T08:07:03;100452.63;;;15.60;100.00
59789;BME280;47353;51.614;5.530;2023-08-06T08:09:28;100464.09;;;15.58;100.00
59789;BME280;47353;51.614;5.530;2023-08-06T08:11:53;100466.97;;;15.45;100.00
59789;BME280;47353;51.614;5.530;2023-08-06T08:14:19;100465.75;;;15.37;100.00
59789;BME280;47353;51.614;5.530;2023-08-06T08:16:44;100475.69;;;15.30;100.00
59789;BME280;47353;51.614;5.530;2023-08-06T08:19:10;100476.34;;;15.27;100.00
59789;BME280;47353;51.614;5.530;2023-08-06T08:21:35;100481.19;;;15.21;100.00
59789;BME280;47353;51.614;5.530;2023-08-06T08:24:00;100482.91;;;15.08;100.00
59789;BME280;47353;51.614;5.530;2023-08-06T08:26:26;100488.78;;;15.07;100.00
59789;BME280;47353;51.614;5.530;2023-08-06T08:28:53;100489.81;;;15.11;100.00
59789;BME280;47353;51.614;5.530;2023-08-06T08:31:18;100500.19;;;15.19;100.00
59789;BME280;47353;51.614;5.530;2023-08-06T08:33:44;100498.34;;;15.15;100.00
59789;BME280;47353;51.614;5.530;2023-08-06T08:36:09;100492.66;;;15.20;100.00
59789;BME280;47353;51.614;5.530;2023-08-06T08:38:35;100504.56;;;15.12;100.00
59789;BME280;47353;51.614;5.530;2023-08-06T08:41:01;100499.38;;;15.19;100.00
59789;BME280;47353;51.614;5.530;2023-08-06T08:43:27;100509.06;;;15.21;100.00
59789;BME280;47353;51.614;5.530;2023-08-06T08:45:53;100504.53;;;15.25;100.00
59789;BME280;47353;51.614;5.530;2023-08-06T08:48:25;100515.69;;;15.25;100.00
59789;BME280;47353;51.614;5.530;2023-08-06T08:50:52;100517.53;;;15.30;100.00
59789;BME280;47353;51.614;5.530;2023-08-06T08:53:18;100512.38;;;15.23;100.00
59789;BME280;47353;51.614;5.530;2023-08-06T08:55:48;100518.66;;;15.29;100.00
59789;BME280;47353;51.614;5.530;2023-08-06T08:58:15;100516.06;;;15.32;100.00
59789;BME280;47353;51.614;5.530;2023-08-06T09:00:42;100523.91;;;15.30;100.00
59789;BME280;47353;51.614;5.530;2023-08-06T09:03:07;100521.13;;;15.30;100.00
59789;BME280;47353;51.614;5.530;2023-08-06T09:05:34;100529.31;;;15.27;100.00
59789;BME280;47353;51.614;5.530;2023-08-06T09:08:03;100535.91;;;15.31;100.00
59789;BME280;47353;51.614;5.530;2023-08-06T09:10:30;100542.31;;;15.31;100.00
59789;BME280;47353;51.614;5.530;2023-08-06T09:12:56;100549.25;;;15.20;100.00
59789;BME280;47353;51.614;5.530;2023-08-06T09:15:26;100547.16;;;15.26;100.00
59789;BME280;47353;51.614;5.530;2023-08-06T09:17:53;100540.31;;;15.32;100.00
59789;BME280;47353;51.614;5.530;2023-08-06T09:20:19;100550.53;;;15.36;100.00
59789;BME280;47353;51.614;5.530;2023-08-06T09:22:45;100549.94;;;15.39;100.00
59789;BME280;47353;51.614;5.530;2023-08-06T09:25:11;100550.25;;;15.38;100.00
59789;BME280;47353;51.614;5.530;2023-08-06T09:27:39;100561.19;;;15.34;100.00
59789;BME280;47353;51.614;5.530;2023-08-06T09:30:06;100555.94;;;15.33;100.00
59789;BME280;47353;51.614;5.530;2023-08-06T09:32:48;100562.63;;;15.32;100.00
59789;BME280;47353;51.614;5.530;2023-08-06T09:35:17;100561.84;;;15.31;100.00
59789;BME280;47353;51.614;5.530;2023-08-06T09:37:42;100572.66;;;15.33;100.00
59789;BME280;47353;51.614;5.530;2023-08-06T09:40:30;100573.91;;;15.40;100.00
59789;BME280;47353;51.614;5.530;2023-08-06T09:42:57;100568.41;;;15.35;100.00
59789;BME280;47353;51.614;5.530;2023-08-06T09:45:24;100574.75;;;15.41;100.00
59789;BME280;47353;51.614;5.530;2023-08-06T09:47:56;100575.22;;;15.43;100.00
59789;BME280;47353;51.614;5.530;2023-08-06T09:50:23;100579.56;;;15.49;100.00
59789;BME280;47353;51.614;5.530;2023-08-06T09:52:53;100577.06;;;15.47;100.00
59789;BME280;47353;51.614;5.530;2023-08-06T09:55:20;100583.38;;;15.53;100.00
59789;BME280;47353;51.614;5.530;2023-08-06T09:57:47;100587.28;;;15.52;100.00
59789;BME280;47353;51.614;5.530;2023-08-06T10:00:12;100597.13;;;15.49;100.00
59789;BME280;47353;51.614;5.530;2023-08-06T10:02:39;100599.91;;;15.49;100.00
59789;BME280;47353;51.614;5.530;2023-08-06T10:05:06;100596.13;;;15.45;100.00
59789;BME280;47353;51.614;5.530;2023-08-06T10:07:33;100604.66;;;15.49;100.00
59789;BME280;47353;51.614;5.530;2023-08-06T10:09:59;100605.50;;;15.49;100.00
59789;BME280;47353;51.614;5.530;2023-08-06T10:12:26;100596.38;;;15.57;100.00
59789;BME280;47353;51.614;5.530;2023-08-06T10:14:54;100604.91;;;15.61;100.00
59789;BME280;47353;51.614;5.530;2023-08-06T10:17:22;100604.13;;;15.60;100.00
59789;BME280;47353;51.614;5.530;2023-08-06T10:19:49;100609.38;;;15.62;100.00
59789;BME280;47353;51.614;5.530;2023-08-06T10:22:17;100611.00;;;15.63;100.00
59789;BME280;47353;51.614;5.530;2023-08-06T10:25:01;100609.13;;;15.72;100.00
59789;BME280;47353;51.614;5.530;2023-08-06T10:27:32;100614.13;;;15.61;100.00
59789;BME280;47353;51.614;5.530;2023-08-06T10:30:29;100609.84;;;15.77;100.00
59789;BME280;47353;51.614;5.530;2023-08-06T10:33:02;100620.03;;;15.82;100.00
59789;BME280;47353;51.614;5.530;2023-08-06T10:35:42;100612.50;;;15.82;100.00
59789;BME280;47353;51.614;5.530;2023-08-06T10:38:14;100615.53;;;15.94;100.00
59789;BME280;47353;51.614;5.530;2023-08-06T10:40:47;100616.50;;;15.90;100.00
59789;BME280;47353;51.614;5.530;2023-08-06T10:43:26;100617.28;;;16.12;100.00
59789;BME280;47353;51.614;5.530;2023-08-06T10:45:52;100624.41;;;16.18;100.00
59789;BME280;47353;51.614;5.530;2023-08-06T10:51:02;100628.25;;;16.31;100.00
59789;BME280;47353;51.614;5.530;2023-08-06T10:53:28;100622.75;;;16.17;100.00
59789;BME280;47353;51.614;5.530;2023-08-06T10:55:54;100626.41;;;16.26;100.00
59789;BME280;47353;51.614;5.530;2023-08-06T10:58:19;100635.13;;;16.25;100.00
59789;BME280;47353;51.614;5.530;2023-08-06T11:00:48;100629.34;;;16.21;100.00
59789;BME280;47353;51.614;5.530;2023-08-06T11:03:14;100635.75;;;16.22;100.00
59789;BME280;47353;51.614;5.530;2023-08-06T11:05:40;100644.16;;;16.30;100.00
59789;BME280;47353;51.614;5.530;2023-08-06T11:08:05;100644.44;;;16.20;100.00
59789;BME280;47353;51.614;5.530;2023-08-06T11:10:33;100640.06;;;16.28;100.00
59789;BME280;47353;51.614;5.530;2023-08-06T11:13:03;100644.03;;;16.35;100.00
59789;BME280;47353;51.614;5.530;2023-08-06T11:15:30;100643.69;;;16.28;100.00
59789;BME280;47353;51.614;5.530;2023-08-06T11:17:55;100642.22;;;16.31;100.00
59789;BME280;47353;51.614;5.530;2023-08-06T11:20:21;100649.09;;;16.25;100.00
59789;BME280;47353;51.614;5.530;2023-08-06T11:22:47;100651.91;;;16.33;100.00
59789;BME280;47353;51.614;5.530;2023-08-06T11:25:13;100634.91;;;16.21;100.00
59789;BME280;47353;51.614;5.530;2023-08-06T11:27:38;100644.34;;;16.25;100.00
59789;BME280;47353;51.614;5.530;2023-08-06T11:30:04;100646.22;;;16.16;100.00
59789;BME280;47353;51.614;5.530;2023-08-06T11:32:30;100640.06;;;16.06;100.00
59789;BME280;47353;51.614;5.530;2023-08-06T11:34:55;100642.31;;;16.17;100.00
59789;BME280;47353;51.614;5.530;2023-08-06T11:37:22;100648.22;;;16.16;100.00
59789;BME280;47353;51.614;5.530;2023-08-06T11:39:51;100657.38;;;16.16;100.00
59789;BME280;47353;51.614;5.530;2023-08-06T11:42:16;100643.25;;;16.13;100.00
59789;BME280;47353;51.614;5.530;2023-08-06T11:44:42;100665.00;;;16.24;100.00
59789;BME280;47353;51.614;5.530;2023-08-06T11:47:15;100660.56;;;16.23;100.00
59789;BME280;47353;51.614;5.530;2023-08-06T11:49:46;100664.75;;;16.34;100.00
59789;BME280;47353;51.614;5.530;2023-08-06T11:52:23;100663.28;;;16.37;100.00
59789;BME280;47353;51.614;5.530;2023-08-06T11:55:08;100676.28;;;16.41;100.00
59789;BME280;47353;51.614;5.530;2023-08-06T11:57:38;100667.69;;;16.51;100.00
59789;BME280;47353;51.614;5.530;2023-08-06T12:00:06;100676.63;;;16.62;100.00
59789;BME280;47353;51.614;5.530;2023-08-06T12:02:33;100679.94;;;16.73;100.00
59789;BME280;47353;51.614;5.530;2023-08-06T12:05:04;100672.78;;;16.89;100.00
59789;BME280;47353;51.614;5.530;2023-08-06T12:07:32;100670.53;;;16.99;100.00
59789;BME280;47353;51.614;5.530;2023-08-06T12:10:01;100677.97;;;17.12;100.00
59789;BME280;47353;51.614;5.530;2023-08-06T12:12:27;100684.25;;;17.26;100.00
59789;BME280;47353;51.614;5.530;2023-08-06T12:14:53;100680.53;;;17.39;100.00
59789;BME280;47353;51.614;5.530;2023-08-06T12:17:19;100688.47;;;17.63;100.00
59789;BME280;47353;51.614;5.530;2023-08-06T12:19:45;100692.31;;;17.84;100.00
59789;BME280;47353;51.614;5.530;2023-08-06T12:22:11;100698.06;;;17.96;100.00
59789;BME280;47353;51.614;5.530;2023-08-06T12:24:38;100694.28;;;17.92;100.00
59789;BME280;47353;51.614;5.530;2023-08-06T12:27:03;100703.50;;;17.92;100.00
59789;BME280;47353;51.614;5.530;2023-08-06T12:29:29;100701.53;;;17.93;100.00
59789;BME280;47353;51.614;5.530;2023-08-06T12:31:56;100697.09;;;18.09;100.00
59789;BME280;47353;51.614;5.530;2023-08-06T12:34:21;100704.63;;;18.17;100.00
59789;BME280;47353;51.614;5.530;2023-08-06T12:36:46;100705.78;;;18.42;100.00
59789;BME280;47353;51.614;5.530;2023-08-06T12:39:12;100705.78;;;18.50;100.00
59789;BME280;47353;51.614;5.530;2023-08-06T12:41:38;100699.53;;;18.53;100.00
59789;BME280;47353;51.614;5.530;2023-08-06T12:44:03;100710.41;;;18.55;100.00
59789;BME280;47353;51.614;5.530;2023-08-06T12:46:29;100713.03;;;18.51;100.00
59789;BME280;47353;51.614;5.530;2023-08-06T12:48:54;100713.19;;;18.46;100.00
59789;BME280;47353;51.614;5.530;2023-08-06T12:51:20;100715.50;;;18.53;100.00